Time;durP1;ratioP1;P1;durP2;ratioP2;P2;SDS_P1;SDS_P2;PMS_P1;PMS_P2;Temp;Humidity;BMP_temperature;BMP_pressure;BME280_temperature;BME280_humidity;BME280_pressure;Samples;Min_cycle;Max_cycle;Signal;HPM_P1;HPM_P2
2021/06/24 18:37:50;;;;;;;7.43;2.17;;;;;;;17.83;100.00;100149.34;6251076;22;2298417;-45
2021/06/24 18:40:57;;;;;;;3.55;1.73;;;;;;;17.62;100.00;100150.97;6356614;22;20015;-46
2021/06/24 18:44:04;;;;;;;3.25;1.70;;;;;;;17.36;100.00;100150.50;6357550;22;20025;-46
2021/06/24 18:47:08;;;;;;;3.95;1.75;;;;;;;17.10;100.00;100147.22;6356712;22;20021;-46
2021/06/24 18:50:16;;;;;;;3.42;0.90;;;;;;;16.91;100.00;100149.03;6357091;22;20415;-46
2021/06/24 18:53:20;;;;;;;2.05;1.13;;;;;;;16.77;100.00;100145.19;6357315;22;20026;-46
2021/06/24 18:56:29;;;;;;;5.80;1.02;;;;;;;16.71;100.00;100146.44;6357029;22;20370;-46
2021/06/24 18:59:34;;;;;;;;;;;;;;;16.73;100.00;100149.53;6357586;22;20026;-46
2021/06/24 19:02:39;;;;;;;3.10;1.75;;;;;;;16.60;100.00;100142.38;6356944;22;19906;-46
2021/06/24 19:05:44;;;;;;;3.45;1.40;;;;;;;16.49;100.00;100155.59;6355661;22;20037;-45
2021/06/24 19:08:48;;;;;;;3.08;1.83;;;;;;;16.26;100.00;100145.59;6356372;22;20030;-47
2021/06/24 19:11:56;;;;;;;2.55;1.20;;;;;;;16.02;100.00;100148.09;6337979;22;20022;-46
2021/06/24 19:14:59;;;;;;;9.35;1.13;;;;;;;15.82;100.00;100140.59;6320628;22;20022;-46
2021/06/24 19:18:05;;;;;;;3.38;1.10;;;;;;;15.69;100.00;100143.09;6357420;22;20026;-46
2021/06/24 19:21:11;;;;;;;4.60;1.58;;;;;;;15.55;100.00;100141.25;6356701;22;20346;-46
2021/06/24 19:24:14;;;;;;;6.78;2.25;;;;;;;15.43;100.00;100142.44;6356696;22;20018;-46
2021/06/24 19:27:18;;;;;;;2.15;0.85;;;;;;;15.30;100.00;100142.88;6357041;22;20022;-46
2021/06/24 19:30:22;;;;;;;2.70;1.75;;;;;;;15.26;100.00;100138.75;6357251;22;20026;-46
2021/06/24 19:33:26;;;;;;;3.58;0.95;;;;;;;15.22;100.00;100146.66;6356991;22;20346;-46
2021/06/24 19:36:29;;;;;;;3.83;1.30;;;;;;;15.14;100.00;100144.28;6351618;22;20022;-46
2021/06/24 19:39:33;;;;;;;3.53;0.82;;;;;;;15.08;100.00;100140.69;6349859;22;20026;-45
2021/06/24 19:42:40;;;;;;;2.65;1.83;;;;;;;15.04;100.00;100139.38;6349811;22;20041;-45
2021/06/24 19:45:44;;;;;;;7.30;2.30;;;;;;;14.98;100.00;100136.56;6350016;22;20061;-45
2021/06/24 19:48:50;;;;;;;4.13;2.30;;;;;;;14.94;100.00;100147.19;6349717;22;20025;-45
2021/06/24 19:51:54;;;;;;;6.30;2.15;;;;;;;14.85;100.00;100152.25;6350351;22;20033;-45
2021/06/24 19:54:57;;;;;;;6.30;1.35;;;;;;;14.76;100.00;100147.59;6350018;22;20042;-45
2021/06/24 19:58:00;;;;;;;3.25;1.55;;;;;;;14.74;100.00;100144.50;6349791;22;20022;-45
2021/06/24 20:01:04;;;;;;;5.82;1.27;;;;;;;14.67;100.00;100147.75;6349263;22;20033;-45
2021/06/24 20:04:09;;;;;;;8.95;2.17;;;;;;;14.69;100.00;100153.63;6330194;22;20097;-45
2021/06/24 20:07:13;;;;;;;7.03;1.98;;;;;;;14.67;100.00;100144.97;6349453;22;20030;-45
2021/06/24 20:10:18;;;;;;;2.85;1.50;;;;;;;14.61;100.00;100141.34;6349480;22;20018;-45
2021/06/24 20:13:21;;;;;;;6.75;1.00;;;;;;;14.60;100.00;100145.41;6348913;22;20021;-45
2021/06/24 20:16:25;;;;;;;4.47;1.50;;;;;;;14.56;100.00;100138.47;6349403;22;20021;-45
2021/06/24 20:19:29;;;;;;;2.40;1.02;;;;;;;14.53;100.00;100140.22;6349654;22;20025;-45
2021/06/24 20:22:33;;;;;;;1.63;0.73;;;;;;;14.56;100.00;100147.66;6349678;22;20014;-45
2021/06/24 20:25:39;;;;;;;4.13;1.13;;;;;;;14.58;100.00;100147.16;6349331;22;20029;-45
2021/06/24 20:28:44;;;;;;;3.17;1.17;;;;;;;14.51;100.00;100142.00;6349868;22;20026;-44
2021/06/24 20:31:47;;;;;;;1.92;1.35;;;;;;;14.51;100.00;100137.16;6349468;22;20021;-44
2021/06/24 20:34:51;;;;;;;1.40;0.75;;;;;;;14.51;100.00;100142.75;6349566;22;20042;-45
2021/06/24 20:37:55;;;;;;;3.40;1.45;;;;;;;14.52;100.00;100138.72;6338918;22;20021;-45
2021/06/24 20:40:59;;;;;;;3.30;1.23;;;;;;;14.52;100.00;100151.94;6349416;22;20026;-45
2021/06/24 20:44:03;;;;;;;1.88;0.80;;;;;;;14.53;100.00;100145.84;6349813;22;20026;-44
2021/06/24 20:47:06;;;;;;;7.95;1.48;;;;;;;14.57;100.00;100143.59;6349439;22;20025;-45
2021/06/24 20:50:13;;;;;;;2.78;1.48;;;;;;;14.52;100.00;100144.31;6348499;22;20029;-45
2021/06/24 20:53:18;;;;;;;12.25;1.38;;;;;;;14.45;100.00;100141.94;6349465;22;20022;-44
2021/06/24 20:56:21;;;;;;;3.83;1.08;;;;;;;14.45;100.00;100130.75;6349145;22;20021;-45
2021/06/24 20:59:25;;;;;;;4.53;1.08;;;;;;;14.47;100.00;100133.81;6348859;22;20029;-44
2021/06/24 21:02:30;;;;;;;2.03;0.60;;;;;;;14.49;100.00;100128.47;6347311;22;20461;-44
2021/06/24 21:05:34;;;;;;;3.67;1.42;;;;;;;14.43;100.00;100125.63;6348202;22;20021;-44
2021/06/24 21:08:41;;;;;;;4.10;1.40;;;;;;;14.39;100.00;100124.31;6348216;22;20022;-45
2021/06/24 21:11:45;;;;;;;8.15;1.08;;;;;;;14.38;100.00;100117.16;6348301;22;20068;-45
2021/06/24 21:14:49;;;;;;;4.50;1.98;;;;;;;14.35;100.00;100118.94;6347771;22;20025;-45
2021/06/24 21:17:53;;;;;;;4.53;1.85;;;;;;;14.41;100.00;100116.19;6348389;22;20029;-45
2021/06/24 21:20:58;;;;;;;6.95;1.67;;;;;;;14.33;100.00;100112.28;6348423;22;20458;-45
2021/06/24 21:24:01;;;;;;;10.10;2.00;;;;;;;14.33;100.00;100115.09;6348872;22;20037;-44
2021/06/24 21:27:06;;;;;;;4.47;1.65;;;;;;;14.30;100.00;100116.06;6348135;22;20014;-45
2021/06/24 21:30:11;;;;;;;3.38;0.98;;;;;;;14.30;100.00;100108.44;6348899;22;20030;-45
2021/06/24 21:33:20;;;;;;;3.95;1.75;;;;;;;14.29;100.00;100095.69;6329889;22;20017;-45
2021/06/24 21:36:27;;;;;;;10.77;1.42;;;;;;;14.32;100.00;100096.75;6343665;22;20081;-45
2021/06/24 21:39:31;;;;;;;1.45;0.80;;;;;;;14.28;100.00;100090.56;6329351;22;20337;-45
2021/06/24 21:42:35;;;;;;;3.95;1.23;;;;;;;14.36;100.00;100094.47;6348714;22;20112;-45
2021/06/24 21:45:46;;;;;;;5.45;1.35;;;;;;;14.28;100.00;100084.97;6348360;22;20462;-45
2021/06/24 21:48:53;;;;;;;3.95;1.40;;;;;;;14.34;100.00;100077.41;6330128;22;20059;-45
2021/06/24 21:51:57;;;;;;;3.78;1.77;;;;;;;14.35;100.00;100078.94;6347080;22;20350;-45
2021/06/24 21:55:04;;;;;;;3.33;1.25;;;;;;;14.35;100.00;100067.75;6348406;22;20351;-45
2021/06/24 21:58:13;;;;;;;3.42;1.23;;;;;;;14.37;100.00;100065.22;6348200;22;20335;-45
2021/06/24 22:01:18;;;;;;;8.55;2.20;;;;;;;14.36;100.00;100058.06;6348485;22;20029;-45
2021/06/24 22:04:21;;;;;;;2.78;1.58;;;;;;;14.35;100.00;100050.94;6348868;22;20442;-45
2021/06/24 22:07:33;;;;;;;4.93;1.33;;;;;;;14.32;100.00;100046.31;6348547;22;20022;-45
2021/06/24 22:10:39;;;;;;;5.45;1.67;;;;;;;14.33;100.00;100045.84;6348265;22;20468;-45
2021/06/24 22:13:44;;;;;;;6.57;2.03;;;;;;;14.36;100.00;100046.84;6348449;22;20470;-45
2021/06/24 22:16:47;;;;;;;5.55;1.15;;;;;;;14.34;100.00;100040.97;6348419;22;20022;-45
2021/06/24 22:19:54;;;;;;;5.53;1.38;;;;;;;14.32;100.00;100041.47;6348143;22;20327;-45
2021/06/24 22:22:57;;;;;;;6.30;1.70;;;;;;;14.31;100.00;100047.59;6348245;22;20752;-45
2021/06/24 22:26:03;;;;;;;5.45;1.77;;;;;;;14.31;100.00;100044.78;6347989;22;20017;-45
2021/06/24 22:29:06;;;;;;;7.13;1.27;;;;;;;14.34;100.00;100050.16;6348643;22;20021;-45
2021/06/24 22:32:10;;;;;;;4.88;1.23;;;;;;;14.29;100.00;100041.72;6348285;22;20034;-45
2021/06/24 22:35:13;;;;;;;1.95;1.02;;;;;;;14.30;100.00;100048.84;6348806;22;20446;-45
2021/06/24 22:38:19;;;;;;;2.78;1.23;;;;;;;14.36;100.00;100044.03;6348148;22;20026;-45
2021/06/24 22:41:22;;;;;;;2.25;1.20;;;;;;;14.31;100.00;100030.78;6347968;22;20021;-45
2021/06/24 22:44:25;;;;;;;4.47;1.30;;;;;;;14.32;100.00;100033.06;6347879;22;20037;-45
2021/06/24 22:47:32;;;;;;;4.57;1.45;;;;;;;14.34;100.00;100033.34;6348066;22;20033;-45
2021/06/24 22:50:35;;;;;;;2.20;0.85;;;;;;;14.32;100.00;100021.88;6348059;22;20037;-43
2021/06/24 22:53:40;;;;;;;4.07;1.60;;;;;;;14.34;100.00;100026.97;6348362;22;20017;-44
2021/06/24 22:56:43;;;;;;;7.05;1.70;;;;;;;14.31;100.00;100013.97;6347472;22;20022;-44
2021/06/24 22:59:47;;;;;;;3.22;1.45;;;;;;;14.29;100.00;100020.03;6348663;22;20030;-44
2021/06/24 23:02:50;;;;;;;8.13;1.48;;;;;;;14.29;100.00;99996.88;6347906;22;20021;-44
2021/06/24 23:05:53;;;;;;;3.25;1.35;;;;;;;14.34;100.00;100004.56;6348419;22;20331;-44
2021/06/24 23:08:57;;;;;;;4.10;1.63;;;;;;;14.30;100.00;100002.00;6347938;22;20501;-44
2021/06/24 23:12:00;;;;;;;5.35;1.65;;;;;;;14.31;100.00;99995.09;6348337;22;20025;-44
2021/06/24 23:15:05;;;;;;;3.35;0.95;;;;;;;14.27;100.00;99993.78;6350029;22;20021;-44
2021/06/24 23:18:09;;;;;;;5.40;1.17;;;;;;;14.34;100.00;100001.75;6330964;22;20021;-44
2021/06/24 23:21:12;;;;;;;9.77;0.95;;;;;;;14.31;100.00;100000.69;6350047;22;20022;-46
2021/06/24 23:24:17;;;;;;;5.07;1.50;;;;;;;14.33;100.00;100001.00;6350441;22;20026;-44
2021/06/24 23:27:20;;;;;;;2.67;1.17;;;;;;;14.37;100.00;99995.16;6349735;22;20026;-45
2021/06/24 23:30:24;;;;;;;6.90;1.80;;;;;;;14.35;100.00;99983.69;6350186;22;20026;-45
2021/06/24 23:33:27;;;;;;;4.00;1.98;;;;;;;14.31;100.00;99997.16;6330091;22;20486;-45
2021/06/24 23:36:31;;;;;;;1.88;1.08;;;;;;;14.32;100.00;99996.66;6345741;22;20025;-46
2021/06/24 23:39:35;;;;;;;7.90;1.13;;;;;;;14.29;100.00;99991.28;6349701;22;20041;-46
2021/06/24 23:42:39;;;;;;;2.05;1.23;;;;;;;14.28;100.00;99989.72;6350099;22;20026;-45
2021/06/24 23:45:42;;;;;;;3.15;1.55;;;;;;;14.25;100.00;99987.91;6349619;22;20022;-45
2021/06/24 23:48:47;;;;;;;6.03;1.80;;;;;;;14.17;100.00;99984.00;6349921;22;20040;-46
2021/06/24 23:51:51;;;;;;;7.50;1.58;;;;;;;14.13;100.00;99989.06;6349564;22;20042;-46
2021/06/24 23:54:55;;;;;;;2.38;1.35;;;;;;;14.12;100.00;99995.97;6350001;22;20038;-46
2021/06/24 23:57:59;;;;;;;3.33;1.13;;;;;;;14.00;100.00;99991.50;6349588;22;20017;-47
